METAR Data
IDs: Format: Raw Decoded Include TAF

Data at: 0845 UTC 20 Sep 2018

KMER 200345Z 33015KT 10SM SKC 21/08 A2979
KMER 200245Z 33015KT 10SM SKC 22/08 A2978
KMER 200145Z 33015KT 10SM SKC 27/08 A2977
KMER 200045Z 33015KT 10SM SKC 30/07 A2977
KMER 192345Z 33015KT 10SM SKC 32/08 A2978
KMER 192245Z 33015KT 10SM SKC 32/07 A2979
KMER 192145Z 30010KT 10SM SKC 32/08 A2982
KMER 192045Z 30010KT 10SM SKC 31/09 A2983
KMER 191945Z 30010KT 10SM SKC 29/09 A2985
KMER 191845Z 30010KT 10SM SKC 27/09 A2987
KMER 191745Z 34010KT 10SM SKC 24/09 A2989
KMER 191645Z 32008KT 10SM SKC 22/10 A2989
KMER 191545Z 34010KT 10SM SKC 18/10 A2989
KMER 191445Z 33008KT 10SM SKC 13/10 A2988
KMER 191345Z 30008KT 10SM SKC 11/09 A2986
KMER 190345Z 31008KT 10SM SKC 18/08 A2983
KMER 190245Z 31008KT 10SM SKC 21/10 A2982
KMER 190145Z 31008KT 10SM SKC 26/09 A2982
KMER 190055Z 31008KT 10SM SKC 29/08 A2981
KMER 182345Z 31008KT 10SM SKC 31/08 A2982
KMER 182245Z 31008KT 10SM SKC 31/08 A2984
KMER 182145Z 30010KT 10SM SKC 31/08 A2985